Hovedside
METAR-TAF:

METAR-TAF

Lufthavner :

Pittsburgh internasjonale lufthavn

Pittsburgh, Pennsylvania, USA

breddegrad: 40-30-14N, lengdegrad: 080-15-59W, høyde over havet: 366 m

Gjeldene værobservasjon

Denne rapporten ble laget for 24 minutter siden, klokken 11:51 UTC
Vind 8 kt fra Nord-nordvest
Temperatur -1°C
Luftfuktighet 69%
Trykk 1021 hPa
Sikt: 16.1 km
Overskyet i en høyde av 2800 ft

METAR: KPIT 181151Z 33008KT 10SM OVC028 M01/M06 A3016 RMK AO2 SLP232 T10061061 10000 21011 51010

Tid: 07:15 (12:15 UTC)

Varsel

Denne rapporten ble laget for 42 minutter siden, klokken 11:33 UTC
Varsel gyldig fra 18. klokken 12 UTC til 19. klokken 18 UTC
Vind 10 kt fra Nord-nordvest
Sikt: 10 km
Overskyet i en høyde av 2500 ft
Fra 18. klokken 1300 UTC
Vind 5 kt fra Nord-nordvest
Sikt: 10 km
Spredte skyer i en høyde av 2500 ft
Fra 18. klokken 1900 UTC
Vind 3 kt fra skiftende retning
Sikt: 10 km
Skyfri himmel

TAF: KPIT 181133Z 1812/1918 34010KT P6SM OVC025 FM181300 33005KT P6SM SCT025 FM181900 VRB03KT P6SM SKC

Værobservasjoner og værvarsel for over 4000 flyplasser (METAR- og TAF-rapporter).

Tilgjengelige stasjoner er representert av de røde og gule prikkene på kartet.

Hold musepekeren over prikken for å se navnet på stasjonen.

Klikk så for å se værobservasjoner og -varsler.

For å forandre kartet kan du klikke på den grønne knappen med svart kryss for å zoome inn, på den grønne knappen med strek for å zoome ut, eller på de grønne pilene for å se tilstøtende kart.


METAR-TAF: